createdAt,value
2023-04-20T00:00:37.615Z,100480.78
2023-04-20T00:03:04.239Z,100492.00
2023-04-20T00:05:32.218Z,100478.44
2023-04-20T00:07:59.151Z,100469.56
2023-04-20T00:10:25.635Z,100471.63
2023-04-20T00:12:52.107Z,100465.53
2023-04-20T00:15:18.679Z,100455.16
2023-04-20T00:17:46.499Z,100453.41
2023-04-20T00:20:13.043Z,100446.72
2023-04-20T00:22:39.653Z,100442.22
2023-04-20T00:25:06.944Z,100442.22
2023-04-20T00:27:33.323Z,100444.69
2023-04-20T00:29:59.700Z,100450.50
2023-04-20T00:32:27.299Z,100445.22
2023-04-20T00:34:53.824Z,100445.31
2023-04-20T00:37:20.224Z,100447.09
2023-04-20T00:39:46.680Z,100446.47
2023-04-20T00:42:13.050Z,100452.28
2023-04-20T00:44:39.493Z,100447.78
2023-04-20T00:47:06.102Z,100439.50
2023-04-20T00:49:32.606Z,100438.16
2023-04-20T00:51:59.693Z,100447.16
2023-04-20T00:54:28.256Z,100436.25
2023-04-20T00:56:56.543Z,100427.81
2023-04-20T00:59:22.983Z,100427.59
2023-04-20T01:01:49.931Z,100423.47
2023-04-20T01:04:17.252Z,100431.00
2023-04-20T01:06:43.863Z,100425.19
2023-04-20T01:09:10.353Z,100427.97
2023-04-20T01:11:36.789Z,100429.34
2023-04-20T01:14:03.209Z,100423.41
2023-04-20T01:16:30.993Z,100423.50
2023-04-20T01:18:57.642Z,100424.72
2023-04-20T01:21:24.216Z,100416.44
2023-04-20T01:23:50.803Z,100417.78
2023-04-20T01:26:19.213Z,100417.66
2023-04-20T01:28:46.487Z,100415.75
2023-04-20T01:31:13.828Z,100409.88
2023-04-20T01:33:40.889Z,100409.00
2023-04-20T01:36:08.275Z,100410.22
2023-04-20T01:38:35.050Z,100413.03
2023-04-20T01:41:04.332Z,100410.34
2023-04-20T01:43:31.244Z,100408.44
2023-04-20T01:45:58.819Z,100405.41
2023-04-20T01:48:25.216Z,100403.72
2023-04-20T01:50:52.681Z,100405.75
2023-04-20T01:53:19.345Z,100400.94
2023-04-20T01:55:45.737Z,100408.69
2023-04-20T01:58:12.111Z,100409.13
2023-04-20T02:00:38.539Z,100410.16
2023-04-20T02:03:05.190Z,100423.34
2023-04-20T02:05:31.734Z,100415.63
2023-04-20T02:07:58.194Z,100419.75
2023-04-20T02:10:24.748Z,100411.25
2023-04-20T02:12:51.275Z,100416.69
2023-04-20T02:15:17.796Z,100404.53
2023-04-20T02:17:44.253Z,100404.06
2023-04-20T02:20:12.514Z,100397.34
2023-04-20T02:22:38.983Z,100392.16
2023-04-20T02:25:06.521Z,100389.56
2023-04-20T02:27:33.242Z,100386.63
2023-04-20T02:30:00.404Z,100383.59
2023-04-20T02:32:27.805Z,100384.06
2023-04-20T02:34:54.291Z,100388.41
2023-04-20T02:37:20.757Z,100390.66
2023-04-20T02:39:47.131Z,100391.47
2023-04-20T02:42:13.623Z,100395.53
2023-04-20T02:44:40.077Z,100392.38
2023-04-20T02:47:06.540Z,100394.88
2023-04-20T02:49:32.974Z,100399.03
2023-04-20T02:51:59.346Z,100393.06
2023-04-20T02:54:25.814Z,100397.00
2023-04-20T02:56:52.210Z,100402.28
2023-04-20T02:59:18.693Z,100395.63
2023-04-20T03:01:45.240Z,100401.34
2023-04-20T03:04:11.808Z,100405.59
2023-04-20T03:06:40.326Z,100399.53
2023-04-20T03:09:07.572Z,100398.41
2023-04-20T03:11:34.068Z,100401.91
2023-04-20T03:14:00.477Z,100401.09
2023-04-20T03:16:26.912Z,100387.38
2023-04-20T03:18:53.330Z,100389.03
2023-04-20T03:21:19.722Z,100388.00
2023-04-20T03:23:46.246Z,100378.59
2023-04-20T03:26:13.478Z,100376.53
2023-04-20T03:28:41.926Z,100379.94
2023-04-20T03:31:08.304Z,100381.66
2023-04-20T03:33:34.686Z,100384.03
2023-04-20T03:36:01.068Z,100393.41
2023-04-20T03:38:27.599Z,100385.31
2023-04-20T03:40:54.271Z,100383.84
2023-04-20T03:43:20.794Z,100373.16
2023-04-20T03:45:47.301Z,100369.91
2023-04-20T03:48:13.731Z,100366.88
2023-04-20T03:50:40.260Z,100358.91
2023-04-20T03:53:06.737Z,100363.25
2023-04-20T03:55:33.156Z,100364.41
2023-04-20T03:57:59.593Z,100358.22
2023-04-20T04:00:26.132Z,100358.63
2023-04-20T04:02:52.730Z,100360.94
2023-04-20T04:05:19.488Z,100356.06
2023-04-20T04:07:45.894Z,100361.78
2023-04-20T04:10:13.149Z,100356.19
2023-04-20T04:12:39.635Z,100365.09
2023-04-20T04:15:06.885Z,100361.47
2023-04-20T04:17:33.287Z,100363.56
2023-04-20T04:19:59.705Z,100358.78
2023-04-20T04:22:26.523Z,100363.53
2023-04-20T04:24:54.507Z,100364.09
2023-04-20T04:27:22.385Z,100366.00
2023-04-20T04:29:49.936Z,100365.31
2023-04-20T04:32:16.922Z,100370.94
2023-04-20T04:34:45.928Z,100359.28
2023-04-20T04:37:12.372Z,100358.13
2023-04-20T04:39:38.776Z,100371.63
2023-04-20T04:42:05.591Z,100380.78
2023-04-20T04:44:33.167Z,100368.69
2023-04-20T04:46:59.621Z,100370.47
2023-04-20T04:49:26.523Z,100369.22
2023-04-20T04:51:52.971Z,100369.38
2023-04-20T04:54:19.382Z,100378.09
2023-04-20T04:56:45.866Z,100383.59
2023-04-20T04:59:12.296Z,100384.06
2023-04-20T05:01:38.801Z,100378.50
2023-04-20T05:04:05.535Z,100375.41
2023-04-20T05:06:32.594Z,100375.84
2023-04-20T05:08:58.987Z,100379.00
2023-04-20T05:11:25.368Z,100375.09
2023-04-20T05:13:51.806Z,100382.38
2023-04-20T05:16:18.482Z,100384.84
2023-04-20T05:18:44.888Z,100395.06
2023-04-20T05:21:11.276Z,100393.19
2023-04-20T05:23:37.680Z,100396.91
2023-04-20T05:26:04.099Z,100398.34
2023-04-20T05:28:30.505Z,100397.19
2023-04-20T05:30:56.948Z,100405.72
2023-04-20T05:33:23.426Z,100395.41
2023-04-20T05:35:51.493Z,100386.63
2023-04-20T05:38:17.981Z,100399.00
2023-04-20T05:40:44.416Z,100401.22
2023-04-20T05:43:10.859Z,100392.50
2023-04-20T05:45:37.331Z,100390.25
2023-04-20T05:48:04.074Z,100385.97
2023-04-20T05:50:31.165Z,100377.03
2023-04-20T05:52:57.542Z,100382.00
2023-04-20T05:55:24.094Z,100384.91
2023-04-20T05:57:52.091Z,100391.16
2023-04-20T06:00:19.540Z,100379.97
2023-04-20T06:02:46.200Z,100384.91
2023-04-20T06:05:13.491Z,100385.75
2023-04-20T06:07:40.405Z,100389.88
2023-04-20T06:10:08.288Z,100404.47
2023-04-20T06:12:35.191Z,100401.66
2023-04-20T06:15:01.936Z,100404.16
2023-04-20T06:17:28.405Z,100402.81
2023-04-20T06:19:55.202Z,100410.78
2023-04-20T06:22:21.927Z,100417.75
2023-04-20T06:24:48.460Z,100407.81
2023-04-20T06:27:14.898Z,100419.50
2023-04-20T06:29:41.817Z,100415.38
2023-04-20T06:32:08.338Z,100408.38
2023-04-20T06:34:34.745Z,100417.31
2023-04-20T06:37:01.172Z,100411.72
2023-04-20T06:39:27.557Z,100405.00
2023-04-20T06:41:54.004Z,100406.56
2023-04-20T06:44:20.418Z,100400.44
2023-04-20T06:46:46.966Z,100397.44
2023-04-20T06:49:13.453Z,100403.91
2023-04-20T06:51:39.920Z,100406.16
2023-04-20T06:54:06.473Z,100403.56
2023-04-20T06:56:35.341Z,100407.19
2023-04-20T06:59:02.350Z,100401.78
2023-04-20T07:01:28.919Z,100403.16
2023-04-20T07:03:55.521Z,100403.97
2023-04-20T07:06:22.616Z,100402.97
2023-04-20T07:08:49.149Z,100406.31
2023-04-20T07:11:15.778Z,100407.66
2023-04-20T07:13:42.518Z,100397.25
2023-04-20T07:16:10.585Z,100399.16
2023-04-20T07:18:37.396Z,100403.31
2023-04-20T07:21:03.875Z,100405.22
2023-04-20T07:23:30.319Z,100405.75
2023-04-20T07:25:56.733Z,100415.88
2023-04-20T07:28:23.185Z,100405.00
2023-04-20T07:30:49.635Z,100420.25
2023-04-20T07:33:16.083Z,100415.88
2023-04-20T07:35:42.545Z,100407.66
2023-04-20T07:38:08.955Z,100412.34
2023-04-20T07:40:35.423Z,100409.00
2023-04-20T07:43:01.819Z,100412.13
2023-04-20T07:45:28.309Z,100411.66
2023-04-20T07:47:55.515Z,100413.69
2023-04-20T07:50:22.145Z,100410.78
2023-04-20T07:52:48.551Z,100417.91
2023-04-20T07:55:15.777Z,100407.56
2023-04-20T07:57:42.518Z,100415.25
2023-04-20T08:00:10.093Z,100411.66
2023-04-20T08:02:36.675Z,100418.31
2023-04-20T08:05:04.038Z,100426.72
2023-04-20T08:07:30.699Z,100432.78
2023-04-20T08:09:57.118Z,100435.81
2023-04-20T08:12:23.721Z,100453.63
2023-04-20T08:14:50.285Z,100459.28
2023-04-20T08:17:16.723Z,100469.81
2023-04-20T08:19:44.976Z,100468.47
2023-04-20T08:22:12.664Z,100470.81
2023-04-20T08:24:39.147Z,100477.13
2023-04-20T08:27:06.606Z,100479.63
2023-04-20T08:29:33.153Z,100475.22
2023-04-20T08:31:59.691Z,100483.06
2023-04-20T08:34:28.597Z,100486.88
2023-04-20T08:36:55.403Z,100485.31
2023-04-20T08:39:24.029Z,100488.16
2023-04-20T08:41:55.386Z,100492.81
2023-04-20T08:44:21.937Z,100495.03
2023-04-20T08:46:49.244Z,100486.31
2023-04-20T08:49:17.049Z,100477.94
2023-04-20T08:51:44.551Z,100477.41
2023-04-20T08:54:12.349Z,100479.00
2023-04-20T08:56:41.086Z,100471.72
2023-04-20T08:59:10.149Z,100475.63
2023-04-20T09:01:39.273Z,100478.06
2023-04-20T09:04:20.255Z,100469.44
2023-04-20T09:06:52.613Z,100470.25
2023-04-20T09:09:24.190Z,100464.22
2023-04-20T09:12:08.040Z,100472.78
2023-04-20T09:14:45.080Z,100477.00
2023-04-20T09:17:14.434Z,100472.19
2023-04-20T09:19:43.589Z,100478.84
2023-04-20T09:22:10.234Z,100483.81
2023-04-20T09:24:38.705Z,100481.78
2023-04-20T09:27:16.326Z,100480.03
2023-04-20T09:29:42.999Z,100467.31
2023-04-20T09:32:23.468Z,100459.00
2023-04-20T09:34:50.154Z,100456.53
2023-04-20T09:37:16.836Z,100454.72
2023-04-20T09:39:44.459Z,100459.78
2023-04-20T09:42:13.016Z,100455.34
2023-04-20T09:44:40.167Z,100452.28
2023-04-20T09:47:08.514Z,100437.53
2023-04-20T09:49:35.562Z,100442.94
2023-04-20T09:52:03.045Z,100451.13
2023-04-20T09:54:29.615Z,100448.25
2023-04-20T09:56:59.113Z,100446.59
2023-04-20T09:59:26.351Z,100448.09
2023-04-20T10:01:53.177Z,100450.94
2023-04-20T10:04:20.097Z,100451.00
2023-04-20T10:06:55.471Z,100456.31
2023-04-20T10:09:23.569Z,100451.56
2023-04-20T10:11:53.952Z,100447.00
2023-04-20T10:14:24.523Z,100441.84
2023-04-20T10:17:01.598Z,100438.47
2023-04-20T10:19:42.266Z,100445.31
2023-04-20T10:22:10.987Z,100444.63
2023-04-20T10:24:38.312Z,100435.66
2023-04-20T10:27:16.752Z,100440.94
2023-04-20T10:29:43.276Z,100438.56
2023-04-20T10:32:24.519Z,100437.91
2023-04-20T10:35:01.086Z,100440.34
2023-04-20T10:37:27.866Z,100437.56
2023-04-20T10:39:54.443Z,100432.63
2023-04-20T10:42:20.947Z,100432.63
2023-04-20T10:44:51.428Z,100433.63
2023-04-20T10:47:26.243Z,100430.81
2023-04-20T10:49:52.973Z,100431.38
2023-04-20T10:52:32.452Z,100430.72
2023-04-20T10:54:58.859Z,100421.03
2023-04-20T10:57:25.471Z,100428.78
2023-04-20T10:59:51.876Z,100419.59
2023-04-20T11:02:18.471Z,100414.09
2023-04-20T11:04:45.047Z,100410.72
2023-04-20T11:07:14.556Z,100418.25
2023-04-20T11:09:42.941Z,100412.97
2023-04-20T11:12:12.586Z,100416.78
2023-04-20T11:14:51.732Z,100415.53
2023-04-20T11:17:18.665Z,100408.47
2023-04-20T11:19:46.693Z,100410.50
2023-04-20T11:22:22.501Z,100401.53
2023-04-20T11:24:50.148Z,100403.84
2023-04-20T11:27:23.788Z,100402.06
2023-04-20T11:30:05.362Z,100391.75
2023-04-20T11:32:33.311Z,100398.81
2023-04-20T11:35:06.505Z,100391.88
2023-04-20T11:37:34.468Z,100390.84
2023-04-20T11:40:04.945Z,100386.34
2023-04-20T11:42:31.372Z,100391.38
2023-04-20T11:44:59.137Z,100389.41
2023-04-20T11:47:25.872Z,100385.25
2023-04-20T11:49:52.302Z,100381.06
2023-04-20T11:52:18.906Z,100386.22
2023-04-20T11:54:45.548Z,100384.78
2023-04-20T11:57:12.145Z,100385.88
2023-04-20T11:59:38.663Z,100380.84
2023-04-20T12:02:05.614Z,100382.56
2023-04-20T12:04:33.092Z,100372.63
2023-04-20T12:07:01.996Z,100369.38
2023-04-20T12:09:30.358Z,100361.88
2023-04-20T12:11:57.626Z,100359.81
2023-04-20T12:14:24.066Z,100359.94
2023-04-20T12:16:50.577Z,100360.28
2023-04-20T12:19:17.206Z,100368.25
2023-04-20T12:21:43.884Z,100361.72
2023-04-20T12:24:10.292Z,100360.16
2023-04-20T12:26:38.673Z,100350.94
2023-04-20T12:29:05.726Z,100359.34
2023-04-20T12:31:32.326Z,100345.94
2023-04-20T12:33:58.752Z,100352.06
2023-04-20T12:36:25.144Z,100347.03
2023-04-20T12:38:55.910Z,100343.66
2023-04-20T12:41:23.895Z,100346.91
2023-04-20T12:43:51.260Z,100343.97
2023-04-20T12:46:18.140Z,100343.59
2023-04-20T12:48:47.187Z,100344.78
2023-04-20T12:51:15.157Z,100345.25
2023-04-20T12:53:42.001Z,100349.19
2023-04-20T12:56:08.429Z,100345.44
2023-04-20T12:58:34.849Z,100329.09
2023-04-20T13:01:01.420Z,100333.94
2023-04-20T13:03:28.249Z,100333.94
2023-04-20T13:05:54.805Z,100333.44
2023-04-20T13:08:21.560Z,100342.91
2023-04-20T13:10:48.038Z,100338.81
2023-04-20T13:15:04.691Z,100334.59
2023-04-20T13:17:31.473Z,100325.03
2023-04-20T13:19:57.929Z,100333.44
2023-04-20T13:22:24.369Z,100331.75
2023-04-20T13:24:50.768Z,100336.28
2023-04-20T13:27:17.248Z,100335.38
2023-04-20T13:29:43.901Z,100324.91
2023-04-20T13:32:10.839Z,100324.31
2023-04-20T13:34:37.390Z,100324.31
2023-04-20T13:37:04.061Z,100316.31
2023-04-20T13:39:30.675Z,100310.78
2023-04-20T13:41:57.326Z,100323.06
2023-04-20T13:44:23.839Z,100309.91
2023-04-20T13:46:50.554Z,100314.13
2023-04-20T13:49:17.031Z,100311.47
2023-04-20T13:51:43.605Z,100312.84
2023-04-20T13:54:10.005Z,100313.53
2023-04-20T13:56:36.509Z,100308.50
2023-04-20T13:59:04.089Z,100303.31
2023-04-20T14:01:31.511Z,100300.44
2023-04-20T14:03:58.416Z,100303.19
2023-04-20T14:06:25.437Z,100304.47
2023-04-20T14:08:51.895Z,100293.09
2023-04-20T14:11:18.330Z,100294.59
2023-04-20T14:13:45.151Z,100282.84
2023-04-20T14:16:14.341Z,100269.00
2023-04-20T14:18:41.036Z,100270.97
2023-04-20T14:21:07.676Z,100268.75
2023-04-20T14:23:34.323Z,100268.38
2023-04-20T14:26:01.050Z,100253.75
2023-04-20T14:28:27.595Z,100260.88
2023-04-20T14:30:54.413Z,100264.72
2023-04-20T14:33:20.852Z,100261.19
2023-04-20T14:35:47.456Z,100272.25
2023-04-20T14:38:13.887Z,100269.66
2023-04-20T14:40:40.447Z,100269.06
2023-04-20T14:43:06.900Z,100263.06
2023-04-20T14:45:33.496Z,100265.94
2023-04-20T14:48:00.112Z,100258.25
2023-04-20T14:50:31.813Z,100269.94
2023-04-20T14:52:58.312Z,100267.00
2023-04-20T14:55:26.097Z,100262.47
2023-04-20T14:57:56.960Z,100259.81
2023-04-20T15:00:25.623Z,100250.72
2023-04-20T15:02:53.130Z,100256.69
2023-04-20T15:05:20.107Z,100259.50
2023-04-20T15:07:50.579Z,100239.78
2023-04-20T15:10:19.103Z,100252.94
2023-04-20T15:12:47.322Z,100256.13
2023-04-20T15:15:14.016Z,100261.31
2023-04-20T15:17:40.471Z,100254.34
2023-04-20T15:20:11.342Z,100258.44
2023-04-20T15:22:37.942Z,100256.75
2023-04-20T15:25:06.564Z,100248.28
2023-04-20T15:27:34.993Z,100256.44
2023-04-20T15:30:05.184Z,100251.94
2023-04-20T15:32:33.806Z,100237.91
2023-04-20T15:35:01.038Z,100249.06
2023-04-20T15:37:28.190Z,100247.59
2023-04-20T15:39:55.800Z,100251.88
2023-04-20T15:42:22.570Z,100249.38
2023-04-20T15:44:48.966Z,100252.78
2023-04-20T15:47:15.499Z,100253.03
2023-04-20T15:49:41.937Z,100244.19
2023-04-20T15:52:08.594Z,100264.69
2023-04-20T15:54:36.704Z,100252.75
2023-04-20T15:57:03.343Z,100252.44
2023-04-20T15:59:30.860Z,100252.56
2023-04-20T16:01:57.426Z,100256.91
2023-04-20T16:04:24.505Z,100257.91
2023-04-20T16:06:51.444Z,100261.31
2023-04-20T16:09:17.856Z,100264.50
2023-04-20T16:11:44.239Z,100268.88
2023-04-20T16:14:10.731Z,100260.91
2023-04-20T16:16:37.181Z,100270.06
2023-04-20T16:19:03.735Z,100265.75
2023-04-20T16:21:30.212Z,100263.25
2023-04-20T16:23:56.929Z,100269.59
2023-04-20T16:26:26.827Z,100266.69
2023-04-20T16:28:54.119Z,100272.56
2023-04-20T16:31:20.654Z,100269.66
2023-04-20T16:33:47.107Z,100268.59
2023-04-20T16:36:15.903Z,100277.03
2023-04-20T16:38:43.253Z,100281.28
2023-04-20T16:41:10.063Z,100277.69
2023-04-20T16:43:36.627Z,100281.78
2023-04-20T16:46:03.034Z,100288.34
2023-04-20T16:48:29.465Z,100283.75
2023-04-20T16:50:56.001Z,100292.13
2023-04-20T16:53:22.429Z,100281.16
2023-04-20T16:55:48.837Z,100281.91
2023-04-20T16:58:15.505Z,100276.75
2023-04-20T17:00:41.924Z,100285.69
2023-04-20T17:03:10.841Z,100288.34
2023-04-20T17:05:41.606Z,100288.84
2023-04-20T17:08:08.675Z,100310.28
2023-04-20T17:10:37.415Z,100309.50
2023-04-20T17:13:04.309Z,100320.28
2023-04-20T17:15:31.534Z,100315.72
2023-04-20T17:17:59.101Z,100321.66
2023-04-20T17:20:25.746Z,100313.22
2023-04-20T17:22:52.160Z,100313.78
2023-04-20T17:25:18.636Z,100294.94
2023-04-20T17:27:45.046Z,100307.97
2023-04-20T17:30:12.031Z,100310.13
2023-04-20T17:32:38.493Z,100304.16
2023-04-20T17:35:05.312Z,100307.09
2023-04-20T17:37:31.784Z,100310.00
2023-04-20T17:39:58.250Z,100305.28
2023-04-20T17:42:24.726Z,100310.44
2023-04-20T17:44:51.421Z,100313.16
2023-04-20T17:47:17.883Z,100313.22
2023-04-20T17:49:44.420Z,100317.16
2023-04-20T17:52:12.555Z,100314.59
2023-04-20T17:54:39.050Z,100311.78
2023-04-20T17:57:06.895Z,100310.91
2023-04-20T17:59:33.345Z,100307.97
2023-04-20T18:02:00.319Z,100319.41
2023-04-20T18:04:27.211Z,100316.00
2023-04-20T18:06:53.830Z,100323.22
2023-04-20T18:09:20.296Z,100327.13
2023-04-20T18:11:46.772Z,100327.13
2023-04-20T18:14:13.331Z,100333.09
2023-04-20T18:16:39.877Z,100337.78
2023-04-20T18:19:06.282Z,100340.25
2023-04-20T18:21:34.666Z,100350.69
2023-04-20T18:24:01.836Z,100356.97
2023-04-20T18:26:28.590Z,100362.78
2023-04-20T18:28:54.978Z,100369.22
2023-04-20T18:31:21.419Z,100374.13
2023-04-20T18:33:47.857Z,100374.03
2023-04-20T18:36:16.197Z,100370.78
2023-04-20T18:38:42.684Z,100377.72
2023-04-20T18:41:09.160Z,100375.69
2023-04-20T18:43:35.728Z,100378.94
2023-04-20T18:46:02.162Z,100381.16
2023-04-20T18:48:28.586Z,100392.28
2023-04-20T18:50:55.061Z,100397.00
2023-04-20T18:53:21.768Z,100410.88
2023-04-20T18:55:48.160Z,100406.38
2023-04-20T18:58:14.593Z,100412.22
2023-04-20T19:00:41.085Z,100429.47
2023-04-20T19:03:08.001Z,100429.81
2023-04-20T19:05:34.581Z,100434.41
2023-04-20T19:08:00.963Z,100438.66
2023-04-20T19:10:27.420Z,100441.34
2023-04-20T19:12:54.783Z,100450.41
2023-04-20T19:15:25.782Z,100457.25
2023-04-20T19:17:54.864Z,100463.97
2023-04-20T19:20:24.498Z,100470.88
2023-04-20T19:22:51.017Z,100471.06
2023-04-20T19:25:17.520Z,100465.75
2023-04-20T19:27:43.994Z,100481.66
2023-04-20T19:30:10.786Z,100479.63
2023-04-20T19:32:37.360Z,100485.56
2023-04-20T19:35:04.137Z,100487.34
2023-04-20T19:37:31.164Z,100486.47
2023-04-20T19:39:57.597Z,100484.78
2023-04-20T19:42:24.085Z,100493.66
2023-04-20T19:44:50.707Z,100492.25
2023-04-20T19:47:17.387Z,100494.81
2023-04-20T19:49:43.825Z,100496.38
2023-04-20T19:52:10.222Z,100492.78
2023-04-20T19:54:36.666Z,100491.09
2023-04-20T19:57:03.138Z,100492.25
2023-04-20T19:59:30.344Z,100507.22
2023-04-20T20:01:56.826Z,100501.69
2023-04-20T20:04:23.541Z,100509.13
2023-04-20T20:06:50.747Z,100511.84
2023-04-20T20:09:18.472Z,100513.63
2023-04-20T20:11:50.138Z,100523.47
2023-04-20T20:14:17.250Z,100512.75
2023-04-20T20:16:44.102Z,100524.47
2023-04-20T20:19:10.607Z,100526.94
2023-04-20T20:21:37.184Z,100530.41
2023-04-20T20:24:03.960Z,100531.06
2023-04-20T20:26:30.420Z,100532.09
2023-04-20T20:28:56.868Z,100528.75
2023-04-20T20:31:23.346Z,100534.56
2023-04-20T20:33:49.901Z,100532.47
2023-04-20T20:36:17.680Z,100524.75
2023-04-20T20:38:44.388Z,100521.38
2023-04-20T20:41:13.477Z,100517.41
2023-04-20T20:43:43.151Z,100512.50
2023-04-20T20:46:09.869Z,100511.63
2023-04-20T20:48:36.450Z,100502.66
2023-04-20T20:51:03.438Z,100508.16
2023-04-20T20:53:29.835Z,100505.97
2023-04-20T20:55:56.400Z,100513.94
2023-04-20T20:58:22.821Z,100514.72
2023-04-20T21:00:49.336Z,100511.63
2023-04-20T21:03:15.978Z,100520.41
2023-04-20T21:05:42.668Z,100511.56
2023-04-20T21:08:10.016Z,100509.72
2023-04-20T21:10:36.634Z,100500.06
2023-04-20T21:13:04.207Z,100510.59
2023-04-20T21:15:30.834Z,100513.97
2023-04-20T21:17:57.384Z,100513.84
2023-04-20T21:20:23.933Z,100518.34
2023-04-20T21:22:50.426Z,100505.69
2023-04-20T21:25:16.872Z,100522.97
2023-04-20T21:27:43.306Z,100523.63
2023-04-20T21:30:10.667Z,100515.47
2023-04-20T21:32:37.231Z,100512.44
2023-04-20T21:35:04.390Z,100520.91
2023-04-20T21:37:30.782Z,100520.41
2023-04-20T21:39:57.180Z,100525.56
2023-04-20T21:42:23.563Z,100522.59
2023-04-20T21:44:50.703Z,100518.88
2023-04-20T21:47:17.105Z,100514.88
2023-04-20T21:49:43.822Z,100530.50
2023-04-20T21:52:10.457Z,100534.09
2023-04-20T21:54:36.942Z,100528.06
2023-04-20T21:57:03.582Z,100538.00
2023-04-20T21:59:30.002Z,100539.53
2023-04-20T22:01:56.565Z,100536.69
2023-04-20T22:04:25.783Z,100548.56
2023-04-20T22:06:53.502Z,100560.00
2023-04-20T22:09:20.294Z,100549.19
2023-04-20T22:11:47.839Z,100557.06
2023-04-20T22:14:14.492Z,100562.34
2023-04-20T22:16:41.161Z,100552.81
2023-04-20T22:19:07.810Z,100567.38
2023-04-20T22:21:34.441Z,100568.25
2023-04-20T22:24:01.176Z,100564.03
2023-04-20T22:26:27.802Z,100573.19
2023-04-20T22:28:54.333Z,100571.88
2023-04-20T22:31:20.865Z,100574.06
2023-04-20T22:33:47.385Z,100574.97
2023-04-20T22:36:13.930Z,100580.25
2023-04-20T22:38:40.502Z,100573.69
2023-04-20T22:41:07.104Z,100570.97
2023-04-20T22:43:33.638Z,100574.06
2023-04-20T22:46:00.228Z,100573.56
2023-04-20T22:48:26.763Z,100570.38
2023-04-20T22:50:53.486Z,100575.75
2023-04-20T22:53:20.004Z,100572.81
2023-04-20T22:55:46.484Z,100579.88
2023-04-20T22:58:13.016Z,100583.34
2023-04-20T23:00:39.582Z,100578.97
2023-04-20T23:03:06.278Z,100579.38
2023-04-20T23:05:33.007Z,100581.28
2023-04-20T23:08:00.604Z,100579.22
2023-04-20T23:10:28.853Z,100584.91
2023-04-20T23:12:55.586Z,100573.84
2023-04-20T23:15:22.158Z,100578.47
2023-04-20T23:17:48.794Z,100569.19
2023-04-20T23:20:15.374Z,100574.72
2023-04-20T23:22:41.858Z,100573.19
2023-04-20T23:25:09.958Z,100566.09
2023-04-20T23:27:36.665Z,100564.56
2023-04-20T23:30:03.475Z,100553.22
2023-04-20T23:32:30.063Z,100552.84
2023-04-20T23:34:56.581Z,100553.88
2023-04-20T23:37:23.056Z,100556.97
2023-04-20T23:39:49.499Z,100553.13
2023-04-20T23:42:15.981Z,100560.19
2023-04-20T23:44:42.512Z,100549.09
2023-04-20T23:47:09.009Z,100555.66
2023-04-20T23:49:35.587Z,100559.13
2023-04-20T23:52:02.078Z,100554.53
2023-04-20T23:54:29.211Z,100553.50
2023-04-20T23:56:55.951Z,100552.31
2023-04-20T23:59:22.444Z,100542.25
